sensor_id;sensor_type;location;lat;lon;timestamp;P1;durP1;ratioP1;P2;durP2;ratioP2
44000;SDS011;29660;42.892;24.710;2023-04-28T00:03:30;8.80;;;3.50;;
44000;SDS011;29660;42.892;24.710;2023-04-28T00:08:53;5.70;;;2.50;;
44000;SDS011;29660;42.892;24.710;2023-04-28T00:14:15;5.07;;;2.58;;
44000;SDS011;29660;42.892;24.710;2023-04-28T00:19:37;6.68;;;2.50;;
44000;SDS011;29660;42.892;24.710;2023-04-28T00:25:00;5.05;;;2.95;;
44000;SDS011;29660;42.892;24.710;2023-04-28T00:30:22;9.63;;;4.40;;
44000;SDS011;29660;42.892;24.710;2023-04-28T00:35:45;8.75;;;3.95;;
44000;SDS011;29660;42.892;24.710;2023-04-28T00:41:10;6.68;;;3.72;;
44000;SDS011;29660;42.892;24.710;2023-04-28T00:46:33;6.70;;;3.08;;
44000;SDS011;29660;42.892;24.710;2023-04-28T00:51:55;12.77;;;5.07;;
44000;SDS011;29660;42.892;24.710;2023-04-28T00:57:18;4.82;;;2.80;;
44000;SDS011;29660;42.892;24.710;2023-04-28T01:02:40;4.70;;;2.92;;
44000;SDS011;29660;42.892;24.710;2023-04-28T01:08:02;11.93;;;3.90;;
44000;SDS011;29660;42.892;24.710;2023-04-28T01:13:25;9.13;;;3.90;;
44000;SDS011;29660;42.892;24.710;2023-04-28T01:18:47;13.25;;;7.60;;
44000;SDS011;29660;42.892;24.710;2023-04-28T01:24:09;7.10;;;4.40;;
44000;SDS011;29660;42.892;24.710;2023-04-28T01:29:32;7.78;;;4.85;;
44000;SDS011;29660;42.892;24.710;2023-04-28T01:34:54;10.18;;;4.90;;
44000;SDS011;29660;42.892;24.710;2023-04-28T01:40:16;8.68;;;4.07;;
44000;SDS011;29660;42.892;24.710;2023-04-28T01:45:38;8.25;;;4.68;;
44000;SDS011;29660;42.892;24.710;2023-04-28T01:51:00;27.23;;;16.58;;
44000;SDS011;29660;42.892;24.710;2023-04-28T01:56:22;23.45;;;16.00;;
44000;SDS011;29660;42.892;24.710;2023-04-28T02:01:46;14.45;;;8.38;;
44000;SDS011;29660;42.892;24.710;2023-04-28T02:07:10;13.98;;;7.82;;
44000;SDS011;29660;42.892;24.710;2023-04-28T02:12:32;9.02;;;4.95;;
44000;SDS011;29660;42.892;24.710;2023-04-28T02:17:54;7.95;;;4.72;;
44000;SDS011;29660;42.892;24.710;2023-04-28T02:23:16;7.47;;;4.68;;
44000;SDS011;29660;42.892;24.710;2023-04-28T02:28:38;8.38;;;4.25;;
44000;SDS011;29660;42.892;24.710;2023-04-28T02:34:00;108.18;;;59.22;;
44000;SDS011;29660;42.892;24.710;2023-04-28T02:39:23;22.10;;;13.80;;
44000;SDS011;29660;42.892;24.710;2023-04-28T02:44:50;10.90;;;8.07;;
44000;SDS011;29660;42.892;24.710;2023-04-28T02:50:12;15.07;;;8.88;;
44000;SDS011;29660;42.892;24.710;2023-04-28T02:55:34;14.35;;;6.22;;
44000;SDS011;29660;42.892;24.710;2023-04-28T03:00:56;9.63;;;5.22;;
44000;SDS011;29660;42.892;24.710;2023-04-28T03:06:19;7.55;;;4.10;;
44000;SDS011;29660;42.892;24.710;2023-04-28T03:11:41;7.32;;;4.75;;
44000;SDS011;29660;42.892;24.710;2023-04-28T03:17:03;10.15;;;6.22;;
44000;SDS011;29660;42.892;24.710;2023-04-28T03:22:25;11.38;;;6.60;;
44000;SDS011;29660;42.892;24.710;2023-04-28T03:27:47;10.27;;;7.05;;
44000;SDS011;29660;42.892;24.710;2023-04-28T03:33:09;22.25;;;13.85;;
44000;SDS011;29660;42.892;24.710;2023-04-28T03:38:31;16.33;;;10.65;;
44000;SDS011;29660;42.892;24.710;2023-04-28T03:43:54;18.95;;;10.45;;
44000;SDS011;29660;42.892;24.710;2023-04-28T03:49:29;12.68;;;9.38;;
44000;SDS011;29660;42.892;24.710;2023-04-28T03:54:51;14.75;;;9.70;;
44000;SDS011;29660;42.892;24.710;2023-04-28T04:00:14;21.27;;;13.40;;
44000;SDS011;29660;42.892;24.710;2023-04-28T04:05:38;19.88;;;10.85;;
44000;SDS011;29660;42.892;24.710;2023-04-28T04:11:01;13.18;;;7.28;;
44000;SDS011;29660;42.892;24.710;2023-04-28T04:16:24;17.88;;;9.10;;
44000;SDS011;29660;42.892;24.710;2023-04-28T04:21:49;17.42;;;10.05;;
44000;SDS011;29660;42.892;24.710;2023-04-28T04:27:13;18.80;;;12.00;;
44000;SDS011;29660;42.892;24.710;2023-04-28T04:32:35;19.27;;;13.00;;
44000;SDS011;29660;42.892;24.710;2023-04-28T04:37:58;30.17;;;14.68;;
44000;SDS011;29660;42.892;24.710;2023-04-28T04:43:22;22.10;;;12.80;;
44000;SDS011;29660;42.892;24.710;2023-04-28T04:48:44;20.67;;;10.65;;
44000;SDS011;29660;42.892;24.710;2023-04-28T04:54:06;24.10;;;14.48;;
44000;SDS011;29660;42.892;24.710;2023-04-28T04:59:30;24.90;;;14.68;;
44000;SDS011;29660;42.892;24.710;2023-04-28T05:04:59;29.48;;;17.92;;
44000;SDS011;29660;42.892;24.710;2023-04-28T05:10:34;33.50;;;14.52;;
44000;SDS011;29660;42.892;24.710;2023-04-28T05:15:58;16.15;;;9.77;;
44000;SDS011;29660;42.892;24.710;2023-04-28T05:21:37;16.27;;;8.60;;
44000;SDS011;29660;42.892;24.710;2023-04-28T05:26:59;18.25;;;8.27;;
44000;SDS011;29660;42.892;24.710;2023-04-28T05:32:22;10.15;;;4.32;;
44000;SDS011;29660;42.892;24.710;2023-04-28T05:37:44;7.40;;;4.45;;
44000;SDS011;29660;42.892;24.710;2023-04-28T05:43:07;10.73;;;4.30;;
44000;SDS011;29660;42.892;24.710;2023-04-28T05:48:29;8.07;;;4.30;;
44000;SDS011;29660;42.892;24.710;2023-04-28T05:53:52;11.68;;;6.13;;
44000;SDS011;29660;42.892;24.710;2023-04-28T05:59:14;14.02;;;8.07;;
44000;SDS011;29660;42.892;24.710;2023-04-28T06:04:37;11.05;;;4.57;;
44000;SDS011;29660;42.892;24.710;2023-04-28T06:10:18;6.30;;;3.33;;
44000;SDS011;29660;42.892;24.710;2023-04-28T06:15:41;10.70;;;3.40;;
44000;SDS011;29660;42.892;24.710;2023-04-28T06:21:03;6.88;;;3.65;;
44000;SDS011;29660;42.892;24.710;2023-04-28T06:26:25;6.10;;;3.25;;
44000;SDS011;29660;42.892;24.710;2023-04-28T06:31:48;7.20;;;3.28;;
44000;SDS011;29660;42.892;24.710;2023-04-28T06:37:10;6.80;;;2.45;;
44000;SDS011;29660;42.892;24.710;2023-04-28T06:42:32;5.03;;;2.08;;
44000;SDS011;29660;42.892;24.710;2023-04-28T06:48:02;5.70;;;3.40;;
44000;SDS011;29660;42.892;24.710;2023-04-28T06:53:25;6.25;;;2.47;;
44000;SDS011;29660;42.892;24.710;2023-04-28T06:58:47;5.50;;;2.50;;
44000;SDS011;29660;42.892;24.710;2023-04-28T07:04:09;4.80;;;2.25;;
44000;SDS011;29660;42.892;24.710;2023-04-28T07:09:35;6.78;;;2.35;;
44000;SDS011;29660;42.892;24.710;2023-04-28T07:15:16;9.20;;;3.00;;
44000;SDS011;29660;42.892;24.710;2023-04-28T07:20:38;7.63;;;2.67;;
44000;SDS011;29660;42.892;24.710;2023-04-28T07:26:00;7.40;;;3.15;;
44000;SDS011;29660;42.892;24.710;2023-04-28T07:31:22;13.95;;;4.28;;
44000;SDS011;29660;42.892;24.710;2023-04-28T07:37:03;5.30;;;3.08;;
44000;SDS011;29660;42.892;24.710;2023-04-28T07:42:26;8.55;;;3.72;;
44000;SDS011;29660;42.892;24.710;2023-04-28T07:47:48;16.42;;;4.45;;
44000;SDS011;29660;42.892;24.710;2023-04-28T07:53:11;9.73;;;5.20;;
44000;SDS011;29660;42.892;24.710;2023-04-28T07:58:33;7.85;;;2.95;;
44000;SDS011;29660;42.892;24.710;2023-04-28T08:03:55;17.13;;;7.10;;
44000;SDS011;29660;42.892;24.710;2023-04-28T08:09:17;14.73;;;4.60;;
44000;SDS011;29660;42.892;24.710;2023-04-28T08:14:41;45.97;;;23.95;;
44000;SDS011;29660;42.892;24.710;2023-04-28T08:20:03;11.75;;;4.50;;
44000;SDS011;29660;42.892;24.710;2023-04-28T08:25:27;9.27;;;4.50;;
44000;SDS011;29660;42.892;24.710;2023-04-28T08:30:49;8.90;;;3.20;;
44000;SDS011;29660;42.892;24.710;2023-04-28T08:36:11;5.57;;;2.58;;
44000;SDS011;29660;42.892;24.710;2023-04-28T08:41:37;5.13;;;3.22;;
44000;SDS011;29660;42.892;24.710;2023-04-28T08:47:00;8.13;;;3.20;;
44000;SDS011;29660;42.892;24.710;2023-04-28T08:52:25;15.25;;;3.72;;
44000;SDS011;29660;42.892;24.710;2023-04-28T08:57:50;8.65;;;3.85;;
44000;SDS011;29660;42.892;24.710;2023-04-28T09:03:12;11.10;;;4.25;;
44000;SDS011;29660;42.892;24.710;2023-04-28T09:08:35;7.70;;;3.10;;
44000;SDS011;29660;42.892;24.710;2023-04-28T09:14:10;7.07;;;3.05;;
44000;SDS011;29660;42.892;24.710;2023-04-28T10:46:08;7.15;;;2.75;;
44000;SDS011;29660;42.892;24.710;2023-04-28T10:51:30;5.78;;;2.65;;
44000;SDS011;29660;42.892;24.710;2023-04-28T10:57:18;6.50;;;2.67;;
44000;SDS011;29660;42.892;24.710;2023-04-28T11:13:39;6.30;;;4.10;;
44000;SDS011;29660;42.892;24.710;2023-04-28T11:19:03;7.53;;;3.50;;
44000;SDS011;29660;42.892;24.710;2023-04-28T11:24:26;5.88;;;3.03;;
44000;SDS011;29660;42.892;24.710;2023-04-28T11:29:50;8.95;;;3.30;;
44000;SDS011;29660;42.892;24.710;2023-04-28T11:35:12;4.80;;;2.70;;
44000;SDS011;29660;42.892;24.710;2023-04-28T11:40:34;9.35;;;4.32;;
44000;SDS011;29660;42.892;24.710;2023-04-28T11:45:56;11.23;;;4.25;;
44000;SDS011;29660;42.892;24.710;2023-04-28T11:51:32;3.95;;;2.20;;
44000;SDS011;29660;42.892;24.710;2023-04-28T11:56:55;7.43;;;3.05;;
44000;SDS011;29660;42.892;24.710;2023-04-28T12:02:25;7.88;;;4.47;;
44000;SDS011;29660;42.892;24.710;2023-04-28T12:07:51;6.35;;;3.40;;
44000;SDS011;29660;42.892;24.710;2023-04-28T12:13:14;6.28;;;2.42;;
44000;SDS011;29660;42.892;24.710;2023-04-28T12:18:37;7.13;;;4.07;;
44000;SDS011;29660;42.892;24.710;2023-04-28T12:23:59;6.43;;;2.83;;
44000;SDS011;29660;42.892;24.710;2023-04-28T12:29:38;11.10;;;5.85;;
44000;SDS011;29660;42.892;24.710;2023-04-28T12:35:01;4.55;;;2.45;;
44000;SDS011;29660;42.892;24.710;2023-04-28T12:40:24;12.00;;;5.65;;
44000;SDS011;29660;42.892;24.710;2023-04-28T12:45:47;4.57;;;3.40;;
44000;SDS011;29660;42.892;24.710;2023-04-28T12:51:10;7.47;;;3.35;;
44000;SDS011;29660;42.892;24.710;2023-04-28T12:56:32;7.07;;;3.38;;
44000;SDS011;29660;42.892;24.710;2023-04-28T13:01:54;15.15;;;5.13;;
44000;SDS011;29660;42.892;24.710;2023-04-28T13:07:16;9.77;;;3.28;;
44000;SDS011;29660;42.892;24.710;2023-04-28T13:12:39;4.45;;;2.70;;
44000;SDS011;29660;42.892;24.710;2023-04-28T13:18:01;5.82;;;2.83;;
44000;SDS011;29660;42.892;24.710;2023-04-28T13:23:24;4.30;;;2.65;;
44000;SDS011;29660;42.892;24.710;2023-04-28T13:28:46;5.05;;;2.78;;
44000;SDS011;29660;42.892;24.710;2023-04-28T13:34:08;5.18;;;3.10;;
44000;SDS011;29660;42.892;24.710;2023-04-28T13:39:36;5.57;;;2.60;;
44000;SDS011;29660;42.892;24.710;2023-04-28T13:45:17;5.63;;;2.40;;
44000;SDS011;29660;42.892;24.710;2023-04-28T13:50:40;4.05;;;2.60;;
44000;SDS011;29660;42.892;24.710;2023-04-28T13:56:02;7.38;;;2.65;;
44000;SDS011;29660;42.892;24.710;2023-04-28T14:01:25;4.65;;;2.90;;
44000;SDS011;29660;42.892;24.710;2023-04-28T14:06:47;13.77;;;6.28;;
44000;SDS011;29660;42.892;24.710;2023-04-28T14:12:11;23.52;;;12.98;;
44000;SDS011;29660;42.892;24.710;2023-04-28T14:17:34;4.60;;;2.80;;
44000;SDS011;29660;42.892;24.710;2023-04-28T14:22:57;5.53;;;2.20;;
44000;SDS011;29660;42.892;24.710;2023-04-28T14:28:20;6.30;;;2.47;;
44000;SDS011;29660;42.892;24.710;2023-04-28T14:33:42;7.05;;;3.35;;
44000;SDS011;29660;42.892;24.710;2023-04-28T14:39:04;6.95;;;4.10;;
44000;SDS011;29660;42.892;24.710;2023-04-28T14:44:27;6.30;;;2.90;;
44000;SDS011;29660;42.892;24.710;2023-04-28T14:49:49;6.80;;;2.67;;
44000;SDS011;29660;42.892;24.710;2023-04-28T14:55:14;8.45;;;4.18;;
44000;SDS011;29660;42.892;24.710;2023-04-28T15:00:36;3.92;;;3.03;;
44000;SDS011;29660;42.892;24.710;2023-04-28T15:05:58;9.40;;;3.50;;
44000;SDS011;29660;42.892;24.710;2023-04-28T15:11:21;4.43;;;2.78;;
44000;SDS011;29660;42.892;24.710;2023-04-28T15:16:43;10.38;;;5.88;;
44000;SDS011;29660;42.892;24.710;2023-04-28T15:22:06;11.35;;;3.78;;
44000;SDS011;29660;42.892;24.710;2023-04-28T15:27:29;6.38;;;3.80;;
44000;SDS011;29660;42.892;24.710;2023-04-28T15:32:51;7.68;;;3.60;;
44000;SDS011;29660;42.892;24.710;2023-04-28T15:38:32;10.55;;;4.60;;
44000;SDS011;29660;42.892;24.710;2023-04-28T15:43:54;7.20;;;4.68;;
44000;SDS011;29660;42.892;24.710;2023-04-28T15:49:18;11.57;;;6.97;;
44000;SDS011;29660;42.892;24.710;2023-04-28T15:54:40;6.95;;;3.20;;
44000;SDS011;29660;42.892;24.710;2023-04-28T16:00:02;8.57;;;3.85;;
44000;SDS011;29660;42.892;24.710;2023-04-28T16:05:28;6.07;;;3.28;;
44000;SDS011;29660;42.892;24.710;2023-04-28T16:10:50;10.18;;;4.22;;
44000;SDS011;29660;42.892;24.710;2023-04-28T16:16:13;7.68;;;4.88;;
44000;SDS011;29660;42.892;24.710;2023-04-28T16:21:35;7.18;;;3.85;;
44000;SDS011;29660;42.892;24.710;2023-04-28T16:26:57;16.33;;;9.10;;
44000;SDS011;29660;42.892;24.710;2023-04-28T16:32:19;6.97;;;4.65;;
44000;SDS011;29660;42.892;24.710;2023-04-28T16:37:42;7.95;;;5.60;;
44000;SDS011;29660;42.892;24.710;2023-04-28T16:43:04;13.40;;;8.32;;
44000;SDS011;29660;42.892;24.710;2023-04-28T16:48:26;8.98;;;6.18;;
44000;SDS011;29660;42.892;24.710;2023-04-28T16:53:48;11.35;;;9.05;;
44000;SDS011;29660;42.892;24.710;2023-04-28T16:59:11;20.17;;;16.27;;
44000;SDS011;29660;42.892;24.710;2023-04-28T17:04:33;35.65;;;27.33;;
44000;SDS011;29660;42.892;24.710;2023-04-28T17:09:56;66.63;;;51.10;;
44000;SDS011;29660;42.892;24.710;2023-04-28T17:15:18;75.07;;;54.55;;
44000;SDS011;29660;42.892;24.710;2023-04-28T17:20:40;68.25;;;54.90;;
44000;SDS011;29660;42.892;24.710;2023-04-28T17:26:03;60.08;;;47.13;;
44000;SDS011;29660;42.892;24.710;2023-04-28T17:31:26;24.95;;;21.85;;
44000;SDS011;29660;42.892;24.710;2023-04-28T17:36:49;26.35;;;17.33;;
44000;SDS011;29660;42.892;24.710;2023-04-28T17:42:12;41.90;;;30.45;;
44000;SDS011;29660;42.892;24.710;2023-04-28T17:47:34;43.35;;;30.25;;
44000;SDS011;29660;42.892;24.710;2023-04-28T17:52:57;50.63;;;39.95;;
44000;SDS011;29660;42.892;24.710;2023-04-28T17:58:19;91.13;;;58.88;;
44000;SDS011;29660;42.892;24.710;2023-04-28T18:03:41;150.30;;;82.40;;
44000;SDS011;29660;42.892;24.710;2023-04-28T18:09:03;109.97;;;81.05;;
44000;SDS011;29660;42.892;24.710;2023-04-28T18:14:26;106.45;;;80.90;;
44000;SDS011;29660;42.892;24.710;2023-04-28T18:19:48;52.25;;;38.30;;
44000;SDS011;29660;42.892;24.710;2023-04-28T18:25:13;43.60;;;31.52;;
44000;SDS011;29660;42.892;24.710;2023-04-28T18:30:37;44.80;;;30.42;;
44000;SDS011;29660;42.892;24.710;2023-04-28T18:36:01;89.60;;;44.80;;
44000;SDS011;29660;42.892;24.710;2023-04-28T18:41:26;24.10;;;15.50;;
44000;SDS011;29660;42.892;24.710;2023-04-28T18:46:48;33.15;;;19.52;;
44000;SDS011;29660;42.892;24.710;2023-04-28T18:52:12;24.35;;;17.23;;
44000;SDS011;29660;42.892;24.710;2023-04-28T18:57:34;21.08;;;13.77;;
44000;SDS011;29660;42.892;24.710;2023-04-28T19:02:56;24.80;;;13.45;;
44000;SDS011;29660;42.892;24.710;2023-04-28T19:08:18;22.38;;;11.50;;
44000;SDS011;29660;42.892;24.710;2023-04-28T19:13:40;34.15;;;20.38;;
44000;SDS011;29660;42.892;24.710;2023-04-28T19:19:07;29.13;;;22.77;;
44000;SDS011;29660;42.892;24.710;2023-04-28T19:24:30;37.97;;;24.83;;
44000;SDS011;29660;42.892;24.710;2023-04-28T19:29:52;43.40;;;30.88;;
44000;SDS011;29660;42.892;24.710;2023-04-28T19:35:14;31.15;;;22.17;;
44000;SDS011;29660;42.892;24.710;2023-04-28T19:40:37;28.23;;;19.95;;
44000;SDS011;29660;42.892;24.710;2023-04-28T19:46:00;26.23;;;20.90;;
44000;SDS011;29660;42.892;24.710;2023-04-28T19:51:23;46.78;;;30.52;;
44000;SDS011;29660;42.892;24.710;2023-04-28T19:56:45;42.13;;;28.38;;
44000;SDS011;29660;42.892;24.710;2023-04-28T20:02:08;33.65;;;22.98;;
44000;SDS011;29660;42.892;24.710;2023-04-28T20:07:30;30.60;;;22.23;;
44000;SDS011;29660;42.892;24.710;2023-04-28T20:12:52;41.05;;;27.75;;
44000;SDS011;29660;42.892;24.710;2023-04-28T20:18:15;29.60;;;22.23;;
44000;SDS011;29660;42.892;24.710;2023-04-28T20:23:37;38.63;;;28.55;;
44000;SDS011;29660;42.892;24.710;2023-04-28T20:28:59;28.23;;;18.80;;
44000;SDS011;29660;42.892;24.710;2023-04-28T20:34:21;27.25;;;15.73;;
44000;SDS011;29660;42.892;24.710;2023-04-28T20:39:43;48.70;;;24.15;;
44000;SDS011;29660;42.892;24.710;2023-04-28T20:45:06;81.80;;;33.38;;
44000;SDS011;29660;42.892;24.710;2023-04-28T20:50:28;38.20;;;22.30;;
44000;SDS011;29660;42.892;24.710;2023-04-28T20:56:12;25.00;;;15.32;;
44000;SDS011;29660;42.892;24.710;2023-04-28T21:01:34;26.55;;;16.08;;
44000;SDS011;29660;42.892;24.710;2023-04-28T21:06:56;22.65;;;15.02;;
44000;SDS011;29660;42.892;24.710;2023-04-28T21:12:19;23.42;;;14.70;;
44000;SDS011;29660;42.892;24.710;2023-04-28T21:17:41;28.33;;;18.38;;
44000;SDS011;29660;42.892;24.710;2023-04-28T21:23:03;19.75;;;12.98;;
44000;SDS011;29660;42.892;24.710;2023-04-28T21:28:44;40.42;;;23.95;;
44000;SDS011;29660;42.892;24.710;2023-04-28T21:34:07;22.02;;;15.25;;
44000;SDS011;29660;42.892;24.710;2023-04-28T21:39:30;18.05;;;13.63;;
44000;SDS011;29660;42.892;24.710;2023-04-28T21:45:10;25.50;;;17.20;;
44000;SDS011;29660;42.892;24.710;2023-04-28T21:50:51;46.75;;;34.95;;
44000;SDS011;29660;42.892;24.710;2023-04-28T21:56:13;25.15;;;17.58;;
44000;SDS011;29660;42.892;24.710;2023-04-28T22:01:36;24.50;;;17.35;;
44000;SDS011;29660;42.892;24.710;2023-04-28T22:06:59;21.77;;;13.23;;
44000;SDS011;29660;42.892;24.710;2023-04-28T22:12:21;23.67;;;15.35;;
44000;SDS011;29660;42.892;24.710;2023-04-28T22:17:44;48.28;;;27.10;;
44000;SDS011;29660;42.892;24.710;2023-04-28T22:23:06;28.63;;;16.88;;
44000;SDS011;29660;42.892;24.710;2023-04-28T22:28:28;13.05;;;7.95;;
44000;SDS011;29660;42.892;24.710;2023-04-28T22:34:09;18.05;;;12.60;;
44000;SDS011;29660;42.892;24.710;2023-04-28T22:39:31;17.00;;;10.93;;
44000;SDS011;29660;42.892;24.710;2023-04-28T22:44:53;14.88;;;9.68;;
44000;SDS011;29660;42.892;24.710;2023-04-28T22:50:15;16.35;;;10.60;;
44000;SDS011;29660;42.892;24.710;2023-04-28T22:55:38;16.73;;;12.50;;
44000;SDS011;29660;42.892;24.710;2023-04-28T23:01:19;17.17;;;12.77;;
44000;SDS011;29660;42.892;24.710;2023-04-28T23:06:41;17.83;;;13.05;;
44000;SDS011;29660;42.892;24.710;2023-04-28T23:12:03;18.23;;;11.93;;
44000;SDS011;29660;42.892;24.710;2023-04-28T23:17:25;14.52;;;9.60;;
44000;SDS011;29660;42.892;24.710;2023-04-28T23:23:06;17.63;;;8.98;;
44000;SDS011;29660;42.892;24.710;2023-04-28T23:28:28;16.75;;;10.63;;
44000;SDS011;29660;42.892;24.710;2023-04-28T23:33:50;16.92;;;10.63;;
44000;SDS011;29660;42.892;24.710;2023-04-28T23:39:12;17.90;;;11.27;;
44000;SDS011;29660;42.892;24.710;2023-04-28T23:44:36;20.30;;;11.38;;
44000;SDS011;29660;42.892;24.710;2023-04-28T23:49:58;16.15;;;11.02;;
44000;SDS011;29660;42.892;24.710;2023-04-28T23:55:21;16.58;;;11.60;;
